createdAt,value
2022-10-23T00:09:34.837Z,14.70
2022-10-23T00:19:36.729Z,14.70
2022-10-23T00:29:40.033Z,14.70
2022-10-23T00:39:42.093Z,14.70
2022-10-23T00:49:45.465Z,14.80
2022-10-23T00:59:47.415Z,14.90
2022-10-23T01:09:59.896Z,14.90
2022-10-23T01:20:11.674Z,15.10
2022-10-23T01:30:17.037Z,15.20
2022-10-23T01:40:23.411Z,15.20
2022-10-23T01:50:28.185Z,15.20
2022-10-23T02:00:30.631Z,15.20
2022-10-23T02:10:41.652Z,15.10
2022-10-23T02:20:46.795Z,15.10
2022-10-23T02:30:50.667Z,15.10
2022-10-23T02:40:54.028Z,15.10
2022-10-23T02:51:03.373Z,15.10
2022-10-23T03:01:10.019Z,15.10
2022-10-23T03:11:13.370Z,15.10
2022-10-23T03:21:15.329Z,15.10
2022-10-23T03:31:18.613Z,15.10
2022-10-23T03:41:20.529Z,15.10
2022-10-23T03:51:23.879Z,15.00
2022-10-23T04:01:26.053Z,15.10
2022-10-23T04:11:29.456Z,15.20
2022-10-23T04:21:31.443Z,15.30
2022-10-23T04:31:34.785Z,15.40
2022-10-23T04:41:36.747Z,15.50
2022-10-23T04:51:40.005Z,15.70
2022-10-23T05:01:42.083Z,15.90
2022-10-23T05:11:45.371Z,15.90
2022-10-23T05:21:48.791Z,16.00
2022-10-23T05:31:56.756Z,16.10
2022-10-23T05:41:58.654Z,16.10
2022-10-23T05:52:01.918Z,16.30
2022-10-23T06:02:04.007Z,16.10
2022-10-23T06:12:07.662Z,15.80
2022-10-23T06:22:09.558Z,16.00
2022-10-23T06:32:12.897Z,15.90
2022-10-23T06:42:14.805Z,15.70
2022-10-23T06:52:41.756Z,15.60
2022-10-23T07:02:40.222Z,15.30
2022-10-23T07:12:43.940Z,15.10
2022-10-23T07:22:51.467Z,15.00
2022-10-23T07:32:54.757Z,15.00
2022-10-23T07:42:56.706Z,15.10
2022-10-23T07:53:00.240Z,15.10
2022-10-23T08:03:02.147Z,15.20
2022-10-23T08:13:05.609Z,15.40
2022-10-23T08:23:08.138Z,15.50
2022-10-23T08:33:11.505Z,15.50
2022-10-23T08:43:21.462Z,15.50
2022-10-23T08:53:29.758Z,15.40
2022-10-23T09:03:31.669Z,15.50
2022-10-23T09:14:03.057Z,15.50
2022-10-23T09:24:05.505Z,15.60
2022-10-23T09:34:20.550Z,15.80
2022-10-23T09:44:24.586Z,15.90
2022-10-23T09:54:29.424Z,15.90
2022-10-23T10:04:36.254Z,16.00
2022-10-23T10:14:55.287Z,16.40
2022-10-23T10:25:01.880Z,16.40
2022-10-23T10:35:19.328Z,16.30
2022-10-23T10:45:29.694Z,15.90
2022-10-23T10:55:38.229Z,15.90
2022-10-23T11:05:45.611Z,16.40
2022-10-23T11:15:49.388Z,16.90
2022-10-23T11:26:03.241Z,16.80
2022-10-23T11:36:13.389Z,16.90
2022-10-23T11:46:28.452Z,17.20
2022-10-23T11:56:31.848Z,17.50
2022-10-23T12:06:40.790Z,17.70
2022-10-23T12:16:44.053Z,17.80
2022-10-23T12:27:02.750Z,17.50
2022-10-23T12:37:25.014Z,17.50
2022-10-23T12:47:27.204Z,17.80
2022-10-23T12:57:30.514Z,17.80
2022-10-23T13:07:37.833Z,18.30
2022-10-23T13:17:43.739Z,18.20
2022-10-23T13:27:46.315Z,18.00
2022-10-23T13:37:49.676Z,17.90
2022-10-23T13:47:51.958Z,17.90
2022-10-23T13:57:55.266Z,18.00
2022-10-23T14:07:57.406Z,18.00
2022-10-23T14:18:04.579Z,18.00
2022-10-23T14:28:09.269Z,17.80
2022-10-23T14:38:12.571Z,17.70
2022-10-23T14:48:14.518Z,17.70
2022-10-23T14:58:17.886Z,17.80
2022-10-23T15:08:21.393Z,17.80
2022-10-23T15:18:24.770Z,17.60
2022-10-23T15:28:27.452Z,17.50
2022-10-23T15:38:30.847Z,17.50
2022-10-23T15:48:32.816Z,17.40
2022-10-23T15:58:36.172Z,17.30
2022-10-23T16:08:39.280Z,17.30
2022-10-23T16:18:42.970Z,17.00
2022-10-23T16:28:47.242Z,16.00
2022-10-23T16:38:50.849Z,15.10
2022-10-23T16:48:53.346Z,14.50
2022-10-23T16:59:26.145Z,14.30
2022-10-23T17:09:28.083Z,14.10
2022-10-23T17:19:44.689Z,14.00
2022-10-23T17:29:48.002Z,13.90
2022-10-23T17:39:51.300Z,13.80
2022-10-23T17:49:53.249Z,13.70
2022-10-23T17:59:56.596Z,13.60
2022-10-23T18:09:58.505Z,13.60
2022-10-23T18:20:02.373Z,13.60
2022-10-23T18:30:05.285Z,13.50
2022-10-23T18:40:09.693Z,13.40
2022-10-23T18:50:11.729Z,13.30
2022-10-23T19:00:15.972Z,13.30
2022-10-23T19:11:06.266Z,13.30
2022-10-23T19:21:09.936Z,13.30
2022-10-23T19:31:12.253Z,13.20
2022-10-23T19:41:15.559Z,13.30
2022-10-23T20:11:52.734Z,13.60
2022-10-23T20:21:54.885Z,13.70
2022-10-23T20:31:58.185Z,13.70
2022-10-23T20:42:00.149Z,13.60
2022-10-23T20:52:03.742Z,13.60
2022-10-23T21:02:05.778Z,13.70
2022-10-23T21:12:09.563Z,13.80
2022-10-23T21:22:11.466Z,14.10
2022-10-23T21:32:14.763Z,14.30
2022-10-23T21:42:16.735Z,14.40
2022-10-23T21:52:20.074Z,14.50
2022-10-23T22:02:22.172Z,14.60
2022-10-23T22:12:25.611Z,14.60
2022-10-23T22:22:27.631Z,14.70
2022-10-23T22:32:30.911Z,14.70
2022-10-23T22:42:32.841Z,14.60
2022-10-23T22:52:36.158Z,14.60
2022-10-23T23:02:38.133Z,14.40
2022-10-23T23:12:41.444Z,14.40
2022-10-23T23:22:43.608Z,14.40
2022-10-23T23:32:49.006Z,14.50
2022-10-23T23:42:51.968Z,14.50
2022-10-23T23:52:55.356Z,14.50
